sensor_id;sensor_type;location;lat;lon;timestamp;pressure;altitude;pressure_sealevel;temperature;humidity
39443;BME280;25147;52.142;9.960;2023-05-21T00:02:07;100876.22;;;12.41;100.00
39443;BME280;25147;52.142;9.960;2023-05-21T00:04:36;100874.47;;;12.42;100.00
39443;BME280;25147;52.142;9.960;2023-05-21T00:07:05;100884.06;;;12.44;100.00
39443;BME280;25147;52.142;9.960;2023-05-21T00:09:34;100898.84;;;12.50;100.00
39443;BME280;25147;52.142;9.960;2023-05-21T00:12:03;100865.06;;;12.29;100.00
39443;BME280;25147;52.142;9.960;2023-05-21T00:14:30;100897.19;;;12.44;100.00
39443;BME280;25147;52.142;9.960;2023-05-21T00:16:57;100888.47;;;12.42;100.00
39443;BME280;25147;52.142;9.960;2023-05-21T00:19:25;100889.38;;;12.40;100.00
39443;BME280;25147;52.142;9.960;2023-05-21T00:21:52;100826.06;;;12.04;100.00
39443;BME280;25147;52.142;9.960;2023-05-21T00:24:22;100877.19;;;12.36;100.00
39443;BME280;25147;52.142;9.960;2023-05-21T00:26:48;100863.38;;;12.24;100.00
39443;BME280;25147;52.142;9.960;2023-05-21T00:29:15;100892.13;;;12.32;100.00
39443;BME280;25147;52.142;9.960;2023-05-21T00:31:42;100872.06;;;12.30;100.00
39443;BME280;25147;52.142;9.960;2023-05-21T00:34:09;100829.56;;;12.04;100.00
39443;BME280;25147;52.142;9.960;2023-05-21T00:36:37;100866.81;;;12.28;100.00
39443;BME280;25147;52.142;9.960;2023-05-21T00:39:04;100872.09;;;12.27;100.00
39443;BME280;25147;52.142;9.960;2023-05-21T00:41:31;100858.97;;;12.25;100.00
39443;BME280;25147;52.142;9.960;2023-05-21T00:43:59;100865.13;;;12.24;100.00
39443;BME280;25147;52.142;9.960;2023-05-21T00:46:27;100872.16;;;12.22;100.00
39443;BME280;25147;52.142;9.960;2023-05-21T00:48:54;100859.06;;;12.20;100.00
39443;BME280;25147;52.142;9.960;2023-05-21T00:51:22;100841.72;;;12.10;100.00
39443;BME280;25147;52.142;9.960;2023-05-21T00:53:51;100849.50;;;12.16;100.00
39443;BME280;25147;52.142;9.960;2023-05-21T00:56:18;100844.31;;;12.13;100.00
39443;BME280;25147;52.142;9.960;2023-05-21T00:58:46;100845.34;;;12.03;100.00
39443;BME280;25147;52.142;9.960;2023-05-21T01:01:13;100847.88;;;12.09;100.00
39443;BME280;25147;52.142;9.960;2023-05-21T01:03:40;100816.66;;;11.91;100.00
39443;BME280;25147;52.142;9.960;2023-05-21T01:06:08;100838.44;;;11.97;100.00
39443;BME280;25147;52.142;9.960;2023-05-21T01:08:36;100836.72;;;11.95;100.00
39443;BME280;25147;52.142;9.960;2023-05-21T01:11:10;100855.00;;;11.99;100.00
39443;BME280;25147;52.142;9.960;2023-05-21T01:13:38;100823.72;;;11.84;100.00
39443;BME280;25147;52.142;9.960;2023-05-21T01:16:06;100836.72;;;11.95;100.00
39443;BME280;25147;52.142;9.960;2023-05-21T01:18:34;100832.38;;;11.92;100.00
39443;BME280;25147;52.142;9.960;2023-05-21T01:21:02;100770.00;;;11.51;100.00
39443;BME280;25147;52.142;9.960;2023-05-21T01:23:30;100838.63;;;11.80;100.00
39443;BME280;25147;52.142;9.960;2023-05-21T01:25:57;100796.09;;;11.60;100.00
39443;BME280;25147;52.142;9.960;2023-05-21T01:28:24;100810.09;;;11.59;100.00
39443;BME280;25147;52.142;9.960;2023-05-21T01:30:51;100785.00;;;11.41;100.00
39443;BME280;25147;52.142;9.960;2023-05-21T01:33:21;100834.34;;;11.75;100.00
39443;BME280;25147;52.142;9.960;2023-05-21T01:36:01;100833.53;;;11.71;100.00
39443;BME280;25147;52.142;9.960;2023-05-21T01:38:36;100819.66;;;11.61;100.00
39443;BME280;25147;52.142;9.960;2023-05-21T01:41:10;100823.97;;;11.65;100.00
39443;BME280;25147;52.142;9.960;2023-05-21T01:43:40;100798.88;;;11.49;100.00
39443;BME280;25147;52.142;9.960;2023-05-21T01:46:09;100796.31;;;11.46;100.00
39443;BME280;25147;52.142;9.960;2023-05-21T01:48:37;100828.53;;;11.54;100.00
39443;BME280;25147;52.142;9.960;2023-05-21T01:51:07;100823.28;;;11.53;100.00
39443;BME280;25147;52.142;9.960;2023-05-21T01:53:36;100814.59;;;11.49;100.00
39443;BME280;25147;52.142;9.960;2023-05-21T01:56:06;100818.97;;;11.50;100.00
39443;BME280;25147;52.142;9.960;2023-05-21T01:58:33;100798.19;;;11.33;100.00
39443;BME280;25147;52.142;9.960;2023-05-21T02:01:00;100802.59;;;11.33;100.00
39443;BME280;25147;52.142;9.960;2023-05-21T02:03:28;100829.47;;;11.47;100.00
39443;BME280;25147;52.142;9.960;2023-05-21T02:05:58;100829.53;;;11.44;100.00
39443;BME280;25147;52.142;9.960;2023-05-21T02:08:25;100834.78;;;11.44;100.00
39443;BME280;25147;52.142;9.960;2023-05-21T02:10:53;100820.94;;;11.31;100.00
39443;BME280;25147;52.142;9.960;2023-05-21T02:13:20;100818.38;;;11.27;100.00
39443;BME280;25147;52.142;9.960;2023-05-21T02:15:47;100772.44;;;10.99;100.00
39443;BME280;25147;52.142;9.960;2023-05-21T02:18:14;100832.28;;;11.33;100.00
39443;BME280;25147;52.142;9.960;2023-05-21T02:20:43;100814.00;;;11.27;100.00
39443;BME280;25147;52.142;9.960;2023-05-21T02:23:09;100807.13;;;11.20;100.00
39443;BME280;25147;52.142;9.960;2023-05-21T02:25:36;100821.03;;;11.25;100.00
39443;BME280;25147;52.142;9.960;2023-05-21T02:28:04;100797.59;;;11.11;100.00
39443;BME280;25147;52.142;9.960;2023-05-21T02:30:31;100824.59;;;11.19;100.00
39443;BME280;25147;52.142;9.960;2023-05-21T02:32:58;100809.84;;;11.11;100.00
39443;BME280;25147;52.142;9.960;2023-05-21T02:35:27;100809.84;;;11.09;100.00
39443;BME280;25147;52.142;9.960;2023-05-21T02:37:53;100781.25;;;10.94;100.00
39443;BME280;25147;52.142;9.960;2023-05-21T02:40:23;100769.97;;;10.86;100.00
39443;BME280;25147;52.142;9.960;2023-05-21T02:42:50;100806.50;;;10.99;100.00
39443;BME280;25147;52.142;9.960;2023-05-21T02:45:18;100802.13;;;10.98;100.00
39443;BME280;25147;52.142;9.960;2023-05-21T02:47:45;100784.00;;;10.80;100.00
39443;BME280;25147;52.142;9.960;2023-05-21T02:50:12;100823.06;;;11.01;100.00
39443;BME280;25147;52.142;9.960;2023-05-21T02:52:39;100823.09;;;10.98;100.00
39443;BME280;25147;52.142;9.960;2023-05-21T02:55:07;100825.72;;;10.97;100.00
39443;BME280;25147;52.142;9.960;2023-05-21T02:57:34;100808.38;;;10.87;100.00
39443;BME280;25147;52.142;9.960;2023-05-21T03:00:00;100823.16;;;10.92;100.00
39443;BME280;25147;52.142;9.960;2023-05-21T03:02:29;100814.44;;;10.90;100.00
39443;BME280;25147;52.142;9.960;2023-05-21T03:04:56;100814.47;;;10.89;100.00
39443;BME280;25147;52.142;9.960;2023-05-21T03:07:23;100804.88;;;10.86;100.00
39443;BME280;25147;52.142;9.960;2023-05-21T03:09:50;100779.81;;;10.63;100.00
39443;BME280;25147;52.142;9.960;2023-05-21T03:12:17;100772.94;;;10.53;100.00
39443;BME280;25147;52.142;9.960;2023-05-21T03:14:45;100763.38;;;10.52;100.00
39443;BME280;25147;52.142;9.960;2023-05-21T03:17:11;100784.19;;;10.63;100.00
39443;BME280;25147;52.142;9.960;2023-05-21T03:19:42;100808.50;;;10.76;100.00
39443;BME280;25147;52.142;9.960;2023-05-21T03:22:09;100801.56;;;10.73;100.00
39443;BME280;25147;52.142;9.960;2023-05-21T03:24:36;100792.06;;;10.64;100.00
39443;BME280;25147;52.142;9.960;2023-05-21T03:27:03;100782.50;;;10.59;100.00
39443;BME280;25147;52.142;9.960;2023-05-21T03:29:31;100798.13;;;10.67;100.00
39443;BME280;25147;52.142;9.960;2023-05-21T03:31:59;100800.81;;;10.59;100.00
39443;BME280;25147;52.142;9.960;2023-05-21T03:34:26;100762.59;;;10.42;100.00
39443;BME280;25147;52.142;9.960;2023-05-21T03:36:54;100754.75;;;10.39;100.00
39443;BME280;25147;52.142;9.960;2023-05-21T03:39:24;100786.03;;;10.56;100.00
39443;BME280;25147;52.142;9.960;2023-05-21T03:41:51;100793.78;;;10.64;100.00
39443;BME280;25147;52.142;9.960;2023-05-21T03:44:21;100797.25;;;10.66;100.00
39443;BME280;25147;52.142;9.960;2023-05-21T03:46:47;100804.25;;;10.66;100.00
39443;BME280;25147;52.142;9.960;2023-05-21T03:49:14;100743.44;;;10.37;100.00
39443;BME280;25147;52.142;9.960;2023-05-21T03:51:41;100786.84;;;10.61;100.00
39443;BME280;25147;52.142;9.960;2023-05-21T03:54:09;100777.25;;;10.59;100.00
39443;BME280;25147;52.142;9.960;2023-05-21T03:56:35;100770.34;;;10.52;100.00
39443;BME280;25147;52.142;9.960;2023-05-21T03:59:02;100774.66;;;10.56;100.00
39443;BME280;25147;52.142;9.960;2023-05-21T04:01:29;100803.25;;;10.76;100.00
39443;BME280;25147;52.142;9.960;2023-05-21T04:03:57;100791.94;;;10.75;100.00
39443;BME280;25147;52.142;9.960;2023-05-21T04:06:24;100777.19;;;10.67;100.00
39443;BME280;25147;52.142;9.960;2023-05-21T04:08:51;100760.72;;;10.57;100.00
39443;BME280;25147;52.142;9.960;2023-05-21T04:11:19;100799.72;;;10.81;100.00
39443;BME280;25147;52.142;9.960;2023-05-21T04:13:45;100805.81;;;10.83;100.00
39443;BME280;25147;52.142;9.960;2023-05-21T04:16:13;100779.75;;;10.71;100.00
39443;BME280;25147;52.142;9.960;2023-05-21T04:18:43;100774.44;;;10.76;100.00
39443;BME280;25147;52.142;9.960;2023-05-21T04:21:10;100796.94;;;10.94;100.00
39443;BME280;25147;52.142;9.960;2023-05-21T04:23:37;100802.16;;;10.97;100.00
39443;BME280;25147;52.142;9.960;2023-05-21T04:26:04;100799.50;;;11.01;100.00
39443;BME280;25147;52.142;9.960;2023-05-21T04:28:33;100806.38;;;11.07;100.00
39443;BME280;25147;52.142;9.960;2023-05-21T04:31:00;100766.38;;;10.93;100.00
39443;BME280;25147;52.142;9.960;2023-05-21T04:33:27;100784.53;;;11.10;100.00
39443;BME280;25147;52.142;9.960;2023-05-21T04:35:54;100801.81;;;11.26;100.00
39443;BME280;25147;52.142;9.960;2023-05-21T04:38:22;100800.81;;;11.33;100.00
39443;BME280;25147;52.142;9.960;2023-05-21T04:40:49;100786.94;;;11.28;100.00
39443;BME280;25147;52.142;9.960;2023-05-21T04:43:16;100806.72;;;11.51;100.00
39443;BME280;25147;52.142;9.960;2023-05-21T04:45:51;100797.88;;;11.58;100.00
39443;BME280;25147;52.142;9.960;2023-05-21T04:48:19;100792.53;;;11.64;100.00
39443;BME280;25147;52.142;9.960;2023-05-21T04:50:47;100797.69;;;11.70;100.00
39443;BME280;25147;52.142;9.960;2023-05-21T04:53:14;100797.63;;;11.75;100.00
39443;BME280;25147;52.142;9.960;2023-05-21T04:55:40;100788.09;;;11.69;100.00
39443;BME280;25147;52.142;9.960;2023-05-21T04:58:07;100788.94;;;11.70;100.00
39443;BME280;25147;52.142;9.960;2023-05-21T05:00:35;100798.47;;;11.77;100.00
39443;BME280;25147;52.142;9.960;2023-05-21T05:03:04;100792.28;;;11.82;100.00
39443;BME280;25147;52.142;9.960;2023-05-21T05:05:31;100778.38;;;11.74;100.00
39443;BME280;25147;52.142;9.960;2023-05-21T05:07:57;100798.31;;;11.86;100.00
39443;BME280;25147;52.142;9.960;2023-05-21T05:10:25;100749.72;;;11.63;100.00
39443;BME280;25147;52.142;9.960;2023-05-21T05:12:51;100781.84;;;11.76;100.00
39443;BME280;25147;52.142;9.960;2023-05-21T05:15:21;100795.63;;;11.94;100.00
39443;BME280;25147;52.142;9.960;2023-05-21T05:17:48;100761.78;;;11.75;100.00
39443;BME280;25147;52.142;9.960;2023-05-21T05:20:17;100775.56;;;11.91;100.00
39443;BME280;25147;52.142;9.960;2023-05-21T05:22:43;100765.06;;;11.90;100.00
39443;BME280;25147;52.142;9.960;2023-05-21T05:25:10;100790.19;;;12.04;100.00
39443;BME280;25147;52.142;9.960;2023-05-21T05:27:37;100757.31;;;11.80;100.00
39443;BME280;25147;52.142;9.960;2023-05-21T05:30:05;100778.09;;;11.96;100.00
39443;BME280;25147;52.142;9.960;2023-05-21T05:32:32;100792.88;;;12.01;100.00
39443;BME280;25147;52.142;9.960;2023-05-21T05:34:59;100795.50;;;12.03;100.00
39443;BME280;25147;52.142;9.960;2023-05-21T05:37:27;100729.66;;;11.59;100.00
39443;BME280;25147;52.142;9.960;2023-05-21T05:39:54;100789.34;;;12.04;100.00
39443;BME280;25147;52.142;9.960;2023-05-21T05:42:21;100790.19;;;12.04;100.00
39443;BME280;25147;52.142;9.960;2023-05-21T05:44:47;100720.09;;;11.57;100.00
39443;BME280;25147;52.142;9.960;2023-05-21T05:47:14;100785.84;;;12.03;100.00
39443;BME280;25147;52.142;9.960;2023-05-21T05:49:41;100742.47;;;11.81;100.00
39443;BME280;25147;52.142;9.960;2023-05-21T05:52:08;100787.47;;;12.11;100.00
39443;BME280;25147;52.142;9.960;2023-05-21T05:54:36;100776.09;;;12.10;100.00
39443;BME280;25147;52.142;9.960;2023-05-21T05:57:03;100769.91;;;12.16;100.00
39443;BME280;25147;52.142;9.960;2023-05-21T05:59:29;100772.44;;;12.20;100.00
39443;BME280;25147;52.142;9.960;2023-05-21T06:02:01;100768.94;;;12.21;100.00
39443;BME280;25147;52.142;9.960;2023-05-21T06:04:28;100762.84;;;12.19;100.00
39443;BME280;25147;52.142;9.960;2023-05-21T06:06:54;100770.53;;;12.29;100.00
39443;BME280;25147;52.142;9.960;2023-05-21T06:09:22;100786.09;;;12.39;100.00
39443;BME280;25147;52.142;9.960;2023-05-21T06:11:51;100789.38;;;12.54;100.00
39443;BME280;25147;52.142;9.960;2023-05-21T06:14:17;100797.91;;;12.63;100.00
39443;BME280;25147;52.142;9.960;2023-05-21T06:16:44;100725.09;;;12.25;100.00
39443;BME280;25147;52.142;9.960;2023-05-21T06:19:11;100788.09;;;12.75;100.00
39443;BME280;25147;52.142;9.960;2023-05-21T06:21:38;100771.59;;;12.68;100.00
39443;BME280;25147;52.142;9.960;2023-05-21T06:24:05;100787.69;;;12.95;100.00
39443;BME280;25147;52.142;9.960;2023-05-21T06:26:32;100773.66;;;12.96;100.00
39443;BME280;25147;52.142;9.960;2023-05-21T06:29:00;100786.47;;;13.13;100.00
39443;BME280;25147;52.142;9.960;2023-05-21T06:31:28;100768.25;;;13.02;100.00
39443;BME280;25147;52.142;9.960;2023-05-21T06:33:57;100788.91;;;13.20;100.00
39443;BME280;25147;52.142;9.960;2023-05-21T06:39:24;100488.63;;;11.50;100.00
39443;BME280;25147;52.142;9.960;2023-05-21T06:41:51;100678.72;;;12.69;100.00
39443;BME280;25147;52.142;9.960;2023-05-21T06:44:20;100797.22;;;13.44;100.00
39443;BME280;25147;52.142;9.960;2023-05-21T06:46:47;100766.28;;;13.13;100.00
39443;BME280;25147;52.142;9.960;2023-05-21T06:49:14;100798.91;;;13.47;100.00
39443;BME280;25147;52.142;9.960;2023-05-21T06:51:40;100664.78;;;12.65;100.00
39443;BME280;25147;52.142;9.960;2023-05-21T06:54:07;100629.22;;;12.49;100.00
39443;BME280;25147;52.142;9.960;2023-05-21T06:56:37;100404.78;;;11.00;100.00
39443;BME280;25147;52.142;9.960;2023-05-21T06:59:05;100457.88;;;11.57;100.00
39443;BME280;25147;52.142;9.960;2023-05-21T07:01:33;100478.66;;;11.68;100.00
39443;BME280;25147;52.142;9.960;2023-05-21T07:04:00;100571.81;;;12.34;100.00
39443;BME280;25147;52.142;9.960;2023-05-21T07:06:27;100767.97;;;13.58;100.00
39443;BME280;25147;52.142;9.960;2023-05-21T07:08:54;100778.16;;;13.72;100.00
39443;BME280;25147;52.142;9.960;2023-05-21T07:11:21;100791.00;;;13.85;100.00
39443;BME280;25147;52.142;9.960;2023-05-21T07:13:53;100774.38;;;13.83;100.00
39443;BME280;25147;52.142;9.960;2023-05-21T07:16:20;100791.50;;;14.01;100.00
39443;BME280;25147;52.142;9.960;2023-05-21T07:18:48;100790.34;;;14.12;100.00
39443;BME280;25147;52.142;9.960;2023-05-21T07:21:14;100782.19;;;14.22;100.00
39443;BME280;25147;52.142;9.960;2023-05-21T07:23:41;100783.69;;;14.33;100.00
39443;BME280;25147;52.142;9.960;2023-05-21T07:26:08;100753.13;;;14.27;100.00
39443;BME280;25147;52.142;9.960;2023-05-21T07:28:36;100796.47;;;14.48;100.00
39443;BME280;25147;52.142;9.960;2023-05-21T07:31:02;100723.38;;;14.22;100.00
39443;BME280;25147;52.142;9.960;2023-05-21T07:33:29;100753.34;;;14.51;100.00
39443;BME280;25147;52.142;9.960;2023-05-21T07:35:57;100709.16;;;14.29;100.00
39443;BME280;25147;52.142;9.960;2023-05-21T07:38:24;100780.66;;;14.81;100.00
39443;BME280;25147;52.142;9.960;2023-05-21T07:40:51;100724.38;;;14.51;100.00
39443;BME280;25147;52.142;9.960;2023-05-21T07:43:18;100770.88;;;14.86;100.00
39443;BME280;25147;52.142;9.960;2023-05-21T07:45:45;100760.22;;;14.89;100.00
39443;BME280;25147;52.142;9.960;2023-05-21T07:48:12;100783.34;;;15.11;100.00
39443;BME280;25147;52.142;9.960;2023-05-21T07:50:39;100732.00;;;14.93;100.00
39443;BME280;25147;52.142;9.960;2023-05-21T07:53:07;100743.06;;;15.05;100.00
39443;BME280;25147;52.142;9.960;2023-05-21T07:55:34;100704.72;;;14.94;100.00
39443;BME280;25147;52.142;9.960;2023-05-21T07:58:01;100757.31;;;15.28;100.00
39443;BME280;25147;52.142;9.960;2023-05-21T08:00:28;100775.91;;;15.53;100.00
39443;BME280;25147;52.142;9.960;2023-05-21T08:02:55;100673.53;;;15.08;100.00
39443;BME280;25147;52.142;9.960;2023-05-21T08:05:22;100756.09;;;15.68;99.90
39443;BME280;25147;52.142;9.960;2023-05-21T08:07:50;100748.03;;;15.73;99.29
39443;BME280;25147;52.142;9.960;2023-05-21T08:10:18;100757.47;;;15.81;98.51
39443;BME280;25147;52.142;9.960;2023-05-21T08:12:45;100715.03;;;15.59;98.59
39443;BME280;25147;52.142;9.960;2023-05-21T08:15:11;100723.03;;;15.56;98.67
39443;BME280;25147;52.142;9.960;2023-05-21T08:17:38;100754.19;;;15.73;99.29
39443;BME280;25147;52.142;9.960;2023-05-21T08:20:06;100724.16;;;15.49;99.02
39443;BME280;25147;52.142;9.960;2023-05-21T08:22:33;100528.75;;;14.44;99.15
39443;BME280;25147;52.142;9.960;2023-05-21T08:25:00;100734.13;;;15.68;99.61
39443;BME280;25147;52.142;9.960;2023-05-21T08:27:28;100742.53;;;15.80;99.76
39443;BME280;25147;52.142;9.960;2023-05-21T08:29:55;100771.75;;;16.02;99.84
39443;BME280;25147;52.142;9.960;2023-05-21T08:32:22;100719.59;;;15.82;99.50
39443;BME280;25147;52.142;9.960;2023-05-21T08:34:49;100746.81;;;16.10;99.24
39443;BME280;25147;52.142;9.960;2023-05-21T08:37:17;100775.94;;;16.35;98.48
39443;BME280;25147;52.142;9.960;2023-05-21T08:39:44;100771.19;;;16.44;97.76
39443;BME280;25147;52.142;9.960;2023-05-21T08:42:18;100754.84;;;16.33;97.59
39443;BME280;25147;52.142;9.960;2023-05-21T08:44:52;100764.94;;;16.47;97.84
39443;BME280;25147;52.142;9.960;2023-05-21T08:47:25;100746.66;;;16.41;97.05
39443;BME280;25147;52.142;9.960;2023-05-21T08:49:53;100753.13;;;16.57;96.50
39443;BME280;25147;52.142;9.960;2023-05-21T08:52:20;100733.81;;;16.55;96.73
39443;BME280;25147;52.142;9.960;2023-05-21T08:54:47;100756.56;;;16.84;97.06
39443;BME280;25147;52.142;9.960;2023-05-21T08:57:17;100700.06;;;16.62;96.19
39443;BME280;25147;52.142;9.960;2023-05-21T08:59:44;100750.59;;;17.03;95.83
39443;BME280;25147;52.142;9.960;2023-05-21T09:02:14;100755.25;;;17.20;95.66
39443;BME280;25147;52.142;9.960;2023-05-21T09:04:43;100753.03;;;17.31;93.86
39443;BME280;25147;52.142;9.960;2023-05-21T09:07:14;100733.22;;;17.19;92.70
39443;BME280;25147;52.142;9.960;2023-05-21T09:09:46;100747.41;;;17.40;92.50
39443;BME280;25147;52.142;9.960;2023-05-21T09:12:14;100745.19;;;17.52;91.96
39443;BME280;25147;52.142;9.960;2023-05-21T09:14:42;100590.00;;;16.61;92.11
39443;BME280;25147;52.142;9.960;2023-05-21T09:17:13;100718.41;;;17.59;91.99
39443;BME280;25147;52.142;9.960;2023-05-21T09:20:08;100727.34;;;17.79;90.48
39443;BME280;25147;52.142;9.960;2023-05-21T09:22:39;100741.75;;;17.94;88.76
39443;BME280;25147;52.142;9.960;2023-05-21T09:25:07;100750.97;;;18.06;88.49
39443;BME280;25147;52.142;9.960;2023-05-21T09:27:34;100741.88;;;18.11;88.70
39443;BME280;25147;52.142;9.960;2023-05-21T09:30:02;100748.41;;;18.24;89.17
39443;BME280;25147;52.142;9.960;2023-05-21T09:32:30;100747.75;;;18.40;87.66
39443;BME280;25147;52.142;9.960;2023-05-21T09:35:05;100679.50;;;18.04;86.39
39443;BME280;25147;52.142;9.960;2023-05-21T09:37:36;100737.69;;;18.48;86.29
39443;BME280;25147;52.142;9.960;2023-05-21T09:40:09;100709.47;;;18.45;85.96
39443;BME280;25147;52.142;9.960;2023-05-21T09:42:38;100752.34;;;18.76;84.94
39443;BME280;25147;52.142;9.960;2023-05-21T09:45:06;100735.13;;;18.65;84.72
39443;BME280;25147;52.142;9.960;2023-05-21T09:47:39;100719.25;;;18.64;85.02
39443;BME280;25147;52.142;9.960;2023-05-21T09:50:08;100748.94;;;18.93;84.11
39443;BME280;25147;52.142;9.960;2023-05-21T09:52:35;100731.38;;;18.90;83.26
39443;BME280;25147;52.142;9.960;2023-05-21T09:55:02;100749.09;;;19.09;82.54
39443;BME280;25147;52.142;9.960;2023-05-21T09:57:29;100739.28;;;19.11;81.69
39443;BME280;25147;52.142;9.960;2023-05-21T09:59:55;100718.84;;;19.13;81.60
39443;BME280;25147;52.142;9.960;2023-05-21T10:02:23;100719.28;;;19.22;81.66
39443;BME280;25147;52.142;9.960;2023-05-21T10:04:52;100730.31;;;19.32;82.28
39443;BME280;25147;52.142;9.960;2023-05-21T10:07:21;100740.19;;;19.48;82.35
39443;BME280;25147;52.142;9.960;2023-05-21T10:09:52;100642.41;;;19.02;80.86
39443;BME280;25147;52.142;9.960;2023-05-21T10:12:23;100728.59;;;19.68;80.70
39443;BME280;25147;52.142;9.960;2023-05-21T10:14:52;100675.13;;;19.39;79.90
39443;BME280;25147;52.142;9.960;2023-05-21T10:17:24;100721.31;;;19.73;79.48
39443;BME280;25147;52.142;9.960;2023-05-21T10:19:54;100728.44;;;19.90;78.28
39443;BME280;25147;52.142;9.960;2023-05-21T10:22:21;100696.38;;;19.75;77.59
39443;BME280;25147;52.142;9.960;2023-05-21T10:24:49;100705.78;;;19.82;78.39
39443;BME280;25147;52.142;9.960;2023-05-21T10:27:18;100708.19;;;19.87;77.49
39443;BME280;25147;52.142;9.960;2023-05-21T10:29:46;100685.31;;;19.84;78.27
39443;BME280;25147;52.142;9.960;2023-05-21T10:32:15;100703.66;;;20.07;77.78
39443;BME280;25147;52.142;9.960;2023-05-21T10:34:42;100682.47;;;20.05;77.44
39443;BME280;25147;52.142;9.960;2023-05-21T10:37:11;100684.19;;;20.23;76.60
39443;BME280;25147;52.142;9.960;2023-05-21T10:39:38;100705.97;;;20.48;76.27
39443;BME280;25147;52.142;9.960;2023-05-21T10:42:15;100692.41;;;20.52;77.22
39443;BME280;25147;52.142;9.960;2023-05-21T10:44:57;100686.41;;;20.66;76.75
39443;BME280;25147;52.142;9.960;2023-05-21T10:47:50;100660.78;;;20.63;73.73
39443;BME280;25147;52.142;9.960;2023-05-21T10:50:41;100707.00;;;20.94;74.22
39443;BME280;25147;52.142;9.960;2023-05-21T10:53:20;100680.75;;;20.88;75.22
39443;BME280;25147;52.142;9.960;2023-05-21T10:55:59;100690.81;;;20.99;75.00
39443;BME280;25147;52.142;9.960;2023-05-21T10:58:58;100668.31;;;20.89;74.14
39443;BME280;25147;52.142;9.960;2023-05-21T11:01:30;100692.19;;;21.06;75.14
39443;BME280;25147;52.142;9.960;2023-05-21T11:03:59;100683.34;;;21.06;75.29
39443;BME280;25147;52.142;9.960;2023-05-21T11:06:27;100679.06;;;21.03;76.03
39443;BME280;25147;52.142;9.960;2023-05-21T11:08:55;100619.53;;;20.72;75.71
39443;BME280;25147;52.142;9.960;2023-05-21T11:11:39;100663.25;;;21.00;76.45
39443;BME280;25147;52.142;9.960;2023-05-21T11:14:28;100662.38;;;20.99;75.83
39443;BME280;25147;52.142;9.960;2023-05-21T11:16:56;100642.91;;;20.99;73.95
39443;BME280;25147;52.142;9.960;2023-05-21T11:19:33;100640.16;;;21.00;74.69
39443;BME280;25147;52.142;9.960;2023-05-21T11:22:07;100658.53;;;21.21;75.21
39443;BME280;25147;52.142;9.960;2023-05-21T11:24:39;100594.13;;;20.82;74.72
39443;BME280;25147;52.142;9.960;2023-05-21T11:27:07;100627.16;;;21.10;74.41
39443;BME280;25147;52.142;9.960;2023-05-21T11:29:42;100631.72;;;21.24;75.96
39443;BME280;25147;52.142;9.960;2023-05-21T11:32:11;100646.81;;;21.39;74.13
39443;BME280;25147;52.142;9.960;2023-05-21T11:34:41;100651.06;;;21.43;74.93
39443;BME280;25147;52.142;9.960;2023-05-21T11:37:24;100591.69;;;21.10;74.76
39443;BME280;25147;52.142;9.960;2023-05-21T11:42:38;100645.59;;;21.61;74.79
39443;BME280;25147;52.142;9.960;2023-05-21T11:45:07;100644.28;;;21.68;75.24
39443;BME280;25147;52.142;9.960;2023-05-21T11:47:34;100642.78;;;21.78;73.88
39443;BME280;25147;52.142;9.960;2023-05-21T11:50:02;100628.09;;;21.71;72.71
39443;BME280;25147;52.142;9.960;2023-05-21T11:52:29;100643.19;;;21.87;72.85
39443;BME280;25147;52.142;9.960;2023-05-21T11:54:58;100650.91;;;21.91;72.19
39443;BME280;25147;52.142;9.960;2023-05-21T11:57:26;100643.75;;;21.92;72.49
39443;BME280;25147;52.142;9.960;2023-05-21T12:00:00;100618.22;;;21.73;72.71
39443;BME280;25147;52.142;9.960;2023-05-21T12:02:30;100620.88;;;21.73;71.41
39443;BME280;25147;52.142;9.960;2023-05-21T12:04:57;100616.50;;;21.72;71.37
39443;BME280;25147;52.142;9.960;2023-05-21T12:07:28;100606.31;;;21.64;69.81
39443;BME280;25147;52.142;9.960;2023-05-21T12:09:55;100623.16;;;21.79;68.97
39443;BME280;25147;52.142;9.960;2023-05-21T12:12:25;100641.38;;;21.87;69.40
39443;BME280;25147;52.142;9.960;2023-05-21T12:14:53;100609.84;;;21.79;69.75
39443;BME280;25147;52.142;9.960;2023-05-21T12:17:22;100625.31;;;22.03;69.22
39443;BME280;25147;52.142;9.960;2023-05-21T12:19:51;100630.97;;;22.13;69.47
39443;BME280;25147;52.142;9.960;2023-05-21T12:22:19;100589.97;;;21.85;69.74
39443;BME280;25147;52.142;9.960;2023-05-21T12:24:47;100636.75;;;22.19;69.06
39443;BME280;25147;52.142;9.960;2023-05-21T12:27:15;100643.03;;;22.18;68.25
39443;BME280;25147;52.142;9.960;2023-05-21T12:29:47;100596.66;;;21.92;67.22
39443;BME280;25147;52.142;9.960;2023-05-21T12:32:14;100579.31;;;21.85;67.02
39443;BME280;25147;52.142;9.960;2023-05-21T12:34:42;100574.44;;;21.77;67.70
39443;BME280;25147;52.142;9.960;2023-05-21T12:37:11;100614.75;;;22.01;68.53
39443;BME280;25147;52.142;9.960;2023-05-21T12:39:42;100577.22;;;21.76;69.12
39443;BME280;25147;52.142;9.960;2023-05-21T12:42:10;100632.47;;;22.17;68.23
39443;BME280;25147;52.142;9.960;2023-05-21T12:44:38;100632.69;;;22.28;68.17
39443;BME280;25147;52.142;9.960;2023-05-21T12:47:06;100605.34;;;22.24;67.90
39443;BME280;25147;52.142;9.960;2023-05-21T12:49:34;100619.34;;;22.42;66.44
39443;BME280;25147;52.142;9.960;2023-05-21T12:52:07;100639.06;;;22.69;65.18
39443;BME280;25147;52.142;9.960;2023-05-21T12:54:36;100606.66;;;22.60;63.86
39443;BME280;25147;52.142;9.960;2023-05-21T12:57:07;100591.84;;;22.83;62.87